createdAt,value
2018-05-01T00:01:13.787Z,11.00
2018-05-01T00:03:41.301Z,10.90
2018-05-01T00:06:08.804Z,10.80
2018-05-01T00:08:36.286Z,10.70
2018-05-01T00:11:03.798Z,10.60
2018-05-01T00:13:31.324Z,10.50
2018-05-01T00:15:58.844Z,10.40
2018-05-01T00:18:26.352Z,10.30
2018-05-01T00:20:54.612Z,10.10
2018-05-01T00:23:22.131Z,10.10
2018-05-01T00:25:49.640Z,10.00
2018-05-01T00:28:17.878Z,10.10
2018-05-01T00:30:45.347Z,10.10
2018-05-01T00:33:12.881Z,10.00
2018-05-01T00:35:40.346Z,10.00
2018-05-01T00:38:07.829Z,10.00
2018-05-01T00:40:35.324Z,10.10
2018-05-01T00:43:02.838Z,10.00
2018-05-01T00:45:30.296Z,10.00
2018-05-01T00:47:57.778Z,10.00
2018-05-01T00:50:26.047Z,10.10
2018-05-01T00:52:53.518Z,10.10
2018-05-01T00:55:21.775Z,10.20
2018-05-01T00:57:49.296Z,10.20
2018-05-01T01:00:16.759Z,10.20
2018-05-01T01:02:45.050Z,10.20
2018-05-01T01:05:12.522Z,10.10
2018-05-01T01:07:40.006Z,10.10
2018-05-01T01:10:07.507Z,10.10
2018-05-01T01:12:34.983Z,10.00
2018-05-01T01:15:02.483Z,10.00
2018-05-01T01:17:30.012Z,10.00
2018-05-01T01:19:57.529Z,10.00
2018-05-01T01:22:25.003Z,10.00
2018-05-01T01:24:52.479Z,10.00
2018-05-01T01:27:19.976Z,9.90
2018-05-01T01:29:47.484Z,10.00
2018-05-01T01:32:14.955Z,10.00
2018-05-01T01:34:42.462Z,9.90
2018-05-01T01:37:09.433Z,9.80
2018-05-01T01:39:36.417Z,9.80
2018-05-01T01:42:04.207Z,9.80
2018-05-01T01:44:31.194Z,9.80
2018-05-01T01:46:59.709Z,9.90
2018-05-01T01:49:27.447Z,9.90
2018-05-01T01:51:54.455Z,9.90
2018-05-01T01:54:21.426Z,9.90
2018-05-01T01:56:48.431Z,9.90
2018-05-01T01:59:15.451Z,10.00
2018-05-01T02:01:43.220Z,10.10
2018-05-01T02:04:10.219Z,10.00
2018-05-01T02:06:37.241Z,10.10
2018-05-01T02:09:04.237Z,10.20
2018-05-01T02:11:31.219Z,10.20
2018-05-01T02:13:58.208Z,10.30
2018-05-01T02:16:25.216Z,10.30
2018-05-01T02:18:52.240Z,10.30
2018-05-01T02:21:20.033Z,10.40
2018-05-01T02:23:47.057Z,10.40
2018-05-01T02:26:14.819Z,10.40
2018-05-01T02:28:42.562Z,10.40
2018-05-01T02:31:09.539Z,10.40
2018-05-01T02:33:36.573Z,10.40
2018-05-01T02:36:04.306Z,10.40
2018-05-01T02:38:31.325Z,10.40
2018-05-01T02:40:58.310Z,10.40
2018-05-01T02:43:25.329Z,10.30
2018-05-01T02:45:52.314Z,10.30
2018-05-01T02:48:20.102Z,10.30
2018-05-01T02:50:47.124Z,10.30
2018-05-01T02:53:15.087Z,10.20
2018-05-01T02:55:42.879Z,10.30
2018-05-01T02:58:09.890Z,10.20
2018-05-01T03:00:36.915Z,10.30
2018-05-01T03:03:03.946Z,10.20
2018-05-01T03:05:30.948Z,10.20
2018-05-01T03:07:58.719Z,10.10
2018-05-01T03:10:26.501Z,10.00
2018-05-01T03:12:53.516Z,10.10
2018-05-01T03:15:20.499Z,10.10
2018-05-01T03:17:47.483Z,10.10
2018-05-01T03:20:14.503Z,10.00
2018-05-01T03:22:41.475Z,10.00
2018-05-01T03:25:08.461Z,10.00
2018-05-01T03:27:35.443Z,10.00
2018-05-01T03:30:02.465Z,10.00
2018-05-01T03:32:29.429Z,10.00
2018-05-01T03:34:56.416Z,10.00
2018-05-01T03:37:23.428Z,9.90
2018-05-01T03:39:50.402Z,9.90
2018-05-01T03:42:17.417Z,9.90
2018-05-01T03:44:44.440Z,9.80
2018-05-01T03:47:11.489Z,9.80
2018-05-01T03:49:38.471Z,9.80
2018-05-01T03:52:05.450Z,9.80
2018-05-01T03:54:33.227Z,9.70
2018-05-01T03:57:00.219Z,9.70
2018-05-01T03:59:28.020Z,9.60
2018-05-01T04:01:55.799Z,9.70
2018-05-01T04:04:23.577Z,9.70
2018-05-01T04:06:50.608Z,9.70
2018-05-01T04:09:17.620Z,9.80
2018-05-01T04:11:44.599Z,9.70
2018-05-01T04:14:11.574Z,9.70
2018-05-01T04:16:38.564Z,9.70
2018-05-01T04:19:05.534Z,9.80
2018-05-01T04:21:33.282Z,9.80
2018-05-01T04:24:01.036Z,9.70
2018-05-01T04:26:28.333Z,9.70
2018-05-01T04:28:55.348Z,9.80
2018-05-01T04:31:23.131Z,9.80
2018-05-01T04:33:50.132Z,9.70
2018-05-01T04:36:17.121Z,9.80
2018-05-01T04:38:44.131Z,9.80
2018-05-01T04:41:11.119Z,9.90
2018-05-01T04:43:38.088Z,9.80
2018-05-01T04:46:05.068Z,9.90
2018-05-01T04:48:32.061Z,9.90
2018-05-01T04:50:59.232Z,9.90
2018-05-01T04:53:26.282Z,9.90
2018-05-01T04:55:53.344Z,10.00
2018-05-01T04:58:20.334Z,10.00
2018-05-01T05:00:47.651Z,10.10
2018-05-01T05:03:14.777Z,10.10
2018-05-01T05:05:41.783Z,10.10
2018-05-01T05:08:08.824Z,10.20
2018-05-01T05:10:35.859Z,10.30
2018-05-01T05:13:03.807Z,10.20
2018-05-01T05:15:30.951Z,10.20
2018-05-01T05:17:57.982Z,10.20
2018-05-01T05:20:24.951Z,10.30
2018-05-01T05:22:51.939Z,10.30
2018-05-01T05:25:18.918Z,10.10
2018-05-01T05:27:45.948Z,10.10
2018-05-01T05:30:12.958Z,10.00
2018-05-01T05:32:40.753Z,10.20
2018-05-01T05:35:07.760Z,10.20
2018-05-01T05:37:34.776Z,10.60
2018-05-01T05:40:01.780Z,10.70
2018-05-01T05:42:28.761Z,10.50
2018-05-01T05:44:55.768Z,10.70
2018-05-01T05:47:22.788Z,10.70
2018-05-01T05:49:49.796Z,11.70
2018-05-01T05:52:16.815Z,13.30
2018-05-01T05:54:43.776Z,14.80
2018-05-01T05:57:11.628Z,16.00
2018-05-01T05:59:38.636Z,15.50
2018-05-01T06:02:05.619Z,14.00
2018-05-01T06:04:32.595Z,12.60
2018-05-01T06:06:59.602Z,11.60
2018-05-01T06:09:26.570Z,10.90
2018-05-01T06:11:53.585Z,11.00
2018-05-01T06:14:20.656Z,11.30
2018-05-01T06:16:47.655Z,11.60
2018-05-01T06:19:14.638Z,11.20
2018-05-01T06:21:41.652Z,11.30
2018-05-01T06:24:08.647Z,11.70
2018-05-01T06:26:35.667Z,11.70
2018-05-01T06:29:02.688Z,11.80
2018-05-01T06:31:29.697Z,11.70
2018-05-01T06:33:56.674Z,11.50
2018-05-01T06:36:23.651Z,11.30
2018-05-01T06:38:50.686Z,11.30
2018-05-01T06:41:18.430Z,11.40
2018-05-01T06:43:46.191Z,11.40
2018-05-01T06:46:13.186Z,11.40
2018-05-01T06:48:40.178Z,11.90
2018-05-01T06:51:07.183Z,12.00
2018-05-01T06:53:34.266Z,12.70
2018-05-01T06:56:01.996Z,12.90
2018-05-01T06:58:29.016Z,12.80
2018-05-01T07:00:55.983Z,15.10
2018-05-01T07:03:23.012Z,14.80
2018-05-01T07:05:49.979Z,14.70
2018-05-01T07:08:16.996Z,14.50
2018-05-01T07:10:44.727Z,13.90
2018-05-01T07:13:11.751Z,13.90
2018-05-01T07:15:38.757Z,14.30
2018-05-01T07:18:05.742Z,14.40
2018-05-01T07:20:32.752Z,14.10
2018-05-01T07:22:59.735Z,15.70
2018-05-01T07:25:26.719Z,16.20
2018-05-01T07:27:54.455Z,15.50
2018-05-01T07:30:21.438Z,15.40
2018-05-01T07:32:48.450Z,14.30
2018-05-01T07:35:15.426Z,13.30
2018-05-01T07:37:43.203Z,13.00
2018-05-01T07:40:10.226Z,12.90
2018-05-01T07:42:37.970Z,12.60
2018-05-01T07:45:04.953Z,12.60
2018-05-01T07:47:31.964Z,12.00
2018-05-01T07:49:58.950Z,12.00
2018-05-01T07:52:25.958Z,12.20
2018-05-01T07:54:52.937Z,12.30
2018-05-01T07:57:19.930Z,12.10
2018-05-01T07:59:46.952Z,12.10
2018-05-01T08:02:13.995Z,12.60
2018-05-01T08:04:41.064Z,12.60
2018-05-01T08:13:52.904Z,13.40
2018-05-01T08:16:20.020Z,16.30
2018-05-01T08:18:47.439Z,16.80
2018-05-01T08:21:15.283Z,16.90
2018-05-01T08:23:42.385Z,16.90
2018-05-01T08:26:09.755Z,15.90
2018-05-01T08:28:36.889Z,16.20
2018-05-01T08:31:04.016Z,15.70
2018-05-01T08:33:32.319Z,13.90
2018-05-01T08:35:59.368Z,13.90
2018-05-01T08:38:26.385Z,13.60
2018-05-01T08:40:54.167Z,15.10
2018-05-01T08:43:21.142Z,15.10
2018-05-01T08:45:48.130Z,16.50
2018-05-01T08:48:15.912Z,15.70
2018-05-01T08:50:43.703Z,15.50
2018-05-01T08:53:10.708Z,15.50
2018-05-01T08:55:37.688Z,15.50
2018-05-01T08:58:04.696Z,14.60
2018-05-01T09:00:31.680Z,13.70
2018-05-01T09:02:58.661Z,13.70
2018-05-01T09:05:25.644Z,13.90
2018-05-01T09:07:53.432Z,14.50
2018-05-01T09:10:20.411Z,14.50
2018-05-01T09:12:47.420Z,14.90
2018-05-01T09:15:14.512Z,15.10
2018-05-01T09:17:41.502Z,15.60
2018-05-01T09:20:08.712Z,14.60
2018-05-01T09:22:37.255Z,15.00
2018-05-01T09:25:04.260Z,15.00
2018-05-01T09:27:32.048Z,14.00
2018-05-01T09:29:59.068Z,14.00
2018-05-01T09:32:26.088Z,14.00
2018-05-01T09:34:53.055Z,14.20
2018-05-01T09:37:20.096Z,13.70
2018-05-01T09:39:47.067Z,13.30
2018-05-01T09:42:14.864Z,12.90
2018-05-01T09:44:41.866Z,12.90
2018-05-01T09:47:08.838Z,12.80
2018-05-01T09:49:35.815Z,12.80
2018-05-01T09:52:02.844Z,13.60
2018-05-01T09:54:30.302Z,13.90
2018-05-01T09:56:57.798Z,14.10
2018-05-01T09:59:25.305Z,14.20
2018-05-01T10:01:52.783Z,14.40
2018-05-01T10:04:20.255Z,14.10
2018-05-01T10:06:47.740Z,13.80
2018-05-01T10:09:15.252Z,14.10
2018-05-01T10:11:42.774Z,14.40
2018-05-01T10:14:11.001Z,14.50
2018-05-01T10:16:38.474Z,14.50
2018-05-01T10:19:05.941Z,14.60
2018-05-01T10:21:33.425Z,14.60
2018-05-01T10:24:01.692Z,14.70
2018-05-01T10:26:29.970Z,14.00
2018-05-01T10:28:58.205Z,14.40
2018-05-01T10:31:25.742Z,14.40
2018-05-01T10:33:53.215Z,15.00
2018-05-01T10:36:20.731Z,15.40
2018-05-01T10:38:48.276Z,15.50
2018-05-01T10:41:15.666Z,15.20
2018-05-01T10:43:43.190Z,14.70
2018-05-01T10:46:11.419Z,14.80
2018-05-01T10:48:38.944Z,14.80
2018-05-01T10:51:06.447Z,14.60
2018-05-01T10:53:33.970Z,14.80
2018-05-01T10:56:01.475Z,14.50
2018-05-01T10:58:28.987Z,13.90
2018-05-01T11:00:56.484Z,14.50
2018-05-01T11:03:23.960Z,14.40
2018-05-01T11:05:52.191Z,14.60
2018-05-01T11:08:19.700Z,14.50
2018-05-01T11:10:47.142Z,14.80
2018-05-01T11:13:15.428Z,15.10
2018-05-01T11:15:43.696Z,15.60
2018-05-01T11:18:11.179Z,15.60
2018-05-01T11:20:38.688Z,15.80
2018-05-01T11:23:06.162Z,15.40
2018-05-01T11:25:33.634Z,15.40
2018-05-01T11:28:01.918Z,15.70
2018-05-01T11:30:29.440Z,15.70
2018-05-01T11:32:56.947Z,15.90
2018-05-01T11:35:24.407Z,16.10
2018-05-01T11:37:51.924Z,16.00
2018-05-01T11:40:19.387Z,15.90
2018-05-01T11:42:47.639Z,15.90
2018-05-01T11:45:15.144Z,15.80
2018-05-01T11:47:42.634Z,16.00
2018-05-01T11:50:10.096Z,16.00
2018-05-01T11:52:37.574Z,16.00
2018-05-01T11:55:05.089Z,15.80
2018-05-01T11:57:32.672Z,15.30
2018-05-01T12:00:00.167Z,15.00
2018-05-01T12:02:27.648Z,15.20
2018-05-01T12:04:55.129Z,15.30
2018-05-01T12:07:23.391Z,15.00
2018-05-01T12:09:50.907Z,15.00
2018-05-01T12:12:18.404Z,14.90
2018-05-01T12:14:45.975Z,14.30
2018-05-01T12:17:13.476Z,14.10
2018-05-01T12:19:40.980Z,13.80
2018-05-01T12:22:08.484Z,13.90
2018-05-01T12:24:35.992Z,13.80
2018-05-01T12:27:03.496Z,13.40
2018-05-01T12:29:31.008Z,13.10
2018-05-01T12:31:58.470Z,13.00
2018-05-01T12:34:25.950Z,12.90
2018-05-01T12:36:53.535Z,13.50
2018-05-01T12:39:20.935Z,13.70
2018-05-01T12:41:48.436Z,13.90
2018-05-01T12:44:15.948Z,13.60
2018-05-01T12:46:43.405Z,14.00
2018-05-01T12:49:10.880Z,14.30
2018-05-01T12:51:38.394Z,14.40
2018-05-01T12:54:06.676Z,13.50
2018-05-01T12:56:34.919Z,13.60
2018-05-01T12:59:02.392Z,13.60
2018-05-01T13:01:29.891Z,13.70
2018-05-01T13:03:57.375Z,13.30
2018-05-01T13:06:24.891Z,13.10
2018-05-01T13:08:53.146Z,12.90
2018-05-01T13:11:21.377Z,12.90
2018-05-01T13:13:48.854Z,12.90
2018-05-01T13:16:17.878Z,12.60
2018-05-01T13:18:46.111Z,12.40
2018-05-01T13:21:13.620Z,12.40
2018-05-01T13:23:41.858Z,12.50
2018-05-01T13:26:09.589Z,12.50
2018-05-01T13:28:37.103Z,12.40
2018-05-01T13:31:05.388Z,12.30
2018-05-01T13:33:33.614Z,12.40
2018-05-01T13:36:01.098Z,12.40
2018-05-01T13:38:28.608Z,12.40
2018-05-01T13:40:56.120Z,12.30
2018-05-01T13:43:23.626Z,12.40
2018-05-01T13:45:51.149Z,12.40
2018-05-01T13:48:19.417Z,12.40
2018-05-01T13:50:47.705Z,12.60
2018-05-01T13:53:15.933Z,12.40
2018-05-01T13:55:43.410Z,12.40
2018-05-01T13:58:10.875Z,12.40
2018-05-01T14:00:38.439Z,12.50
2018-05-01T14:03:06.662Z,12.90
2018-05-01T14:05:34.142Z,12.80
2018-05-01T14:08:01.656Z,12.90
2018-05-01T14:10:29.126Z,12.70
2018-05-01T14:12:56.598Z,12.70
2018-05-01T14:15:24.087Z,12.60
2018-05-01T14:17:51.592Z,12.50
2018-05-01T14:20:19.061Z,12.50
2018-05-01T14:22:46.567Z,12.50
2018-05-01T14:25:14.089Z,12.30
2018-05-01T14:27:41.553Z,12.50
2018-05-01T14:30:09.076Z,12.50
2018-05-01T14:32:36.577Z,12.70
2018-05-01T14:35:04.092Z,12.90
2018-05-01T14:37:31.599Z,12.90
2018-05-01T14:39:59.124Z,12.80
2018-05-01T14:42:26.635Z,12.70
2018-05-01T14:44:54.098Z,12.60
2018-05-01T14:47:22.343Z,12.60
2018-05-01T14:49:49.843Z,12.50
2018-05-01T14:52:18.137Z,12.70
2018-05-01T14:54:45.616Z,12.70
2018-05-01T14:57:13.090Z,12.60
2018-05-01T14:59:40.600Z,12.60
2018-05-01T15:02:08.113Z,12.70
2018-05-01T15:04:35.609Z,12.70
2018-05-01T15:07:03.082Z,12.70
2018-05-01T15:09:30.582Z,12.70
2018-05-01T15:11:58.101Z,12.70
2018-05-01T15:14:25.600Z,12.70
2018-05-01T15:16:53.083Z,12.70
2018-05-01T15:19:21.406Z,12.80
2018-05-01T15:21:48.843Z,12.80
2018-05-01T15:24:16.364Z,12.70
2018-05-01T15:26:43.875Z,12.60
2018-05-01T15:29:11.338Z,12.60
2018-05-01T15:31:38.852Z,12.60
2018-05-01T15:34:07.125Z,12.50
2018-05-01T15:36:35.368Z,12.60
2018-05-01T15:39:02.831Z,12.60
2018-05-01T15:41:30.355Z,12.60
2018-05-01T15:43:57.912Z,12.50
2018-05-01T15:46:25.372Z,12.50
2018-05-01T15:48:52.838Z,12.60
2018-05-01T15:51:20.348Z,12.50
2018-05-01T15:53:48.619Z,12.40
2018-05-01T15:56:16.866Z,12.40
2018-05-01T15:58:44.335Z,12.30
2018-05-01T16:01:11.803Z,12.20
2018-05-01T16:03:40.030Z,12.10
2018-05-01T16:06:07.549Z,12.10
2018-05-01T16:08:35.819Z,12.20
2018-05-01T16:11:04.338Z,12.20
2018-05-01T16:13:32.212Z,12.20
2018-05-01T16:15:59.674Z,12.30
2018-05-01T16:18:27.191Z,12.40
2018-05-01T16:20:54.707Z,12.50
2018-05-01T16:23:22.228Z,12.50
2018-05-01T16:25:49.733Z,12.50
2018-05-01T16:28:17.207Z,12.40
2018-05-01T16:30:45.442Z,12.30
2018-05-01T16:33:12.927Z,12.30
2018-05-01T16:35:41.164Z,12.20
2018-05-01T16:38:08.640Z,12.20
2018-05-01T16:40:36.157Z,12.20
2018-05-01T16:43:03.676Z,12.30
2018-05-01T16:45:31.201Z,12.20
2018-05-01T16:47:59.432Z,12.10
2018-05-01T16:50:26.914Z,12.10
2018-05-01T16:52:54.425Z,12.10
2018-05-01T16:55:21.917Z,12.00
2018-05-01T16:57:49.387Z,12.00
2018-05-01T17:00:16.856Z,11.90
2018-05-01T17:02:44.330Z,11.70
2018-05-01T17:05:11.848Z,11.80
2018-05-01T17:07:39.367Z,11.80
2018-05-01T17:10:06.826Z,11.90
2018-05-01T17:12:35.105Z,12.00
2018-05-01T17:15:03.380Z,12.00
2018-05-01T17:17:31.655Z,12.00
2018-05-01T17:19:59.114Z,12.00
2018-05-01T17:22:27.362Z,11.90
2018-05-01T17:24:54.838Z,11.80
2018-05-01T17:27:22.380Z,11.80
2018-05-01T17:29:49.867Z,11.60
2018-05-01T17:32:18.139Z,11.50
2018-05-01T17:34:46.477Z,11.40
2018-05-01T17:37:13.956Z,11.40
2018-05-01T17:39:41.476Z,11.30
2018-05-01T17:42:08.954Z,11.20
2018-05-01T17:44:36.473Z,11.10
2018-05-01T17:47:04.005Z,11.00
2018-05-01T17:49:32.279Z,10.90
2018-05-01T17:52:00.555Z,10.90
2018-05-01T17:54:28.842Z,10.80
2018-05-01T17:56:57.070Z,10.70
2018-05-01T17:59:24.584Z,10.70
2018-05-01T18:01:52.044Z,10.80
2018-05-01T18:04:19.523Z,10.70
2018-05-01T18:06:47.028Z,10.70
2018-05-01T18:09:14.539Z,10.70
2018-05-01T18:11:42.006Z,10.60
2018-05-01T18:14:09.528Z,10.50
2018-05-01T18:16:37.032Z,10.50
2018-05-01T18:19:04.540Z,10.40
2018-05-01T18:21:32.000Z,10.30
2018-05-01T18:23:59.512Z,10.20
2018-05-01T18:26:27.018Z,10.00
2018-05-01T18:28:54.524Z,9.90
2018-05-01T18:31:21.989Z,9.80
2018-05-01T18:33:49.509Z,9.80
2018-05-01T18:36:17.037Z,9.80
2018-05-01T18:38:45.325Z,9.70
2018-05-01T18:41:12.823Z,9.60
2018-05-01T18:43:40.287Z,9.50
2018-05-01T18:46:07.803Z,9.40
2018-05-01T18:48:35.304Z,9.20
2018-05-01T18:51:02.775Z,9.10
2018-05-01T18:53:30.242Z,8.90
2018-05-01T18:55:58.498Z,8.60
2018-05-01T18:58:26.003Z,8.60
2018-05-01T19:00:53.516Z,8.60
2018-05-01T19:03:20.971Z,8.50
2018-05-01T19:05:48.484Z,8.50
2018-05-01T19:08:16.015Z,8.50
2018-05-01T19:10:44.248Z,8.30
2018-05-01T19:13:11.710Z,8.30
2018-05-01T19:15:39.270Z,8.20
2018-05-01T19:18:07.501Z,7.90
2018-05-01T19:20:34.982Z,7.90
2018-05-01T19:23:02.483Z,7.70
2018-05-01T19:25:30.764Z,7.60
2018-05-01T19:27:59.019Z,7.60
2018-05-01T19:30:26.524Z,7.60
2018-05-01T19:32:53.991Z,7.60
2018-05-01T19:35:21.501Z,7.60
2018-05-01T19:37:49.001Z,7.70
2018-05-01T19:40:16.538Z,7.70
2018-05-01T19:42:44.772Z,7.50
2018-05-01T19:45:12.251Z,7.50
2018-05-01T19:47:39.748Z,7.40
2018-05-01T19:50:07.256Z,7.30
2018-05-01T19:52:34.774Z,7.20
2018-05-01T19:55:02.292Z,7.00
2018-05-01T19:57:30.552Z,6.80
2018-05-01T19:59:58.022Z,6.90
2018-05-01T20:02:26.251Z,6.80
2018-05-01T20:04:53.734Z,6.80
2018-05-01T20:07:21.192Z,6.80
2018-05-01T20:09:48.667Z,6.80
2018-05-01T20:12:16.898Z,6.70
2018-05-01T20:14:44.366Z,6.70
2018-05-01T20:17:12.645Z,6.40
2018-05-01T20:19:40.108Z,6.40
2018-05-01T20:22:07.587Z,6.30
2018-05-01T20:24:35.103Z,6.20
2018-05-01T20:27:02.589Z,6.30
2018-05-01T20:29:30.088Z,6.40
2018-05-01T20:31:57.561Z,6.50
2018-05-01T20:34:25.084Z,6.50
2018-05-01T20:36:53.330Z,6.00
2018-05-01T20:39:20.837Z,6.00
2018-05-01T20:41:48.305Z,5.80
2018-05-01T20:44:15.793Z,5.60
2018-05-01T20:46:43.308Z,5.50
2018-05-01T20:49:10.801Z,5.40
2018-05-01T20:51:39.086Z,5.40
2018-05-01T20:54:06.546Z,5.40
2018-05-01T20:56:34.055Z,5.50
2018-05-01T20:59:01.545Z,5.50
2018-05-01T21:01:29.027Z,5.50
2018-05-01T21:03:56.536Z,5.40
2018-05-01T21:06:24.022Z,5.20
2018-05-01T21:08:51.514Z,5.10
2018-05-01T21:11:19.797Z,4.90
2018-05-01T21:13:48.061Z,4.80
2018-05-01T21:16:15.588Z,4.80
2018-05-01T21:18:43.081Z,4.70
2018-05-01T21:21:10.565Z,4.70
2018-05-01T21:23:38.056Z,4.60
2018-05-01T21:26:05.527Z,4.50
2018-05-01T21:28:33.018Z,4.40
2018-05-01T21:31:01.236Z,4.40
2018-05-01T21:33:28.735Z,4.40
2018-05-01T21:35:56.228Z,4.40
2018-05-01T21:38:23.736Z,4.40
2018-05-01T21:40:51.228Z,4.50
2018-05-01T21:43:19.514Z,4.40
2018-05-01T21:45:46.975Z,4.40
2018-05-01T21:48:14.467Z,4.30
2018-05-01T21:50:41.930Z,4.30
2018-05-01T21:53:09.406Z,4.30
2018-05-01T21:55:36.870Z,4.40
2018-05-01T21:58:04.339Z,4.40
2018-05-01T22:00:32.609Z,4.10
2018-05-01T22:03:00.083Z,4.10
2018-05-01T22:05:27.584Z,4.00
2018-05-01T22:07:55.100Z,4.00
2018-05-01T22:10:22.568Z,4.00
2018-05-01T22:12:50.152Z,3.90
2018-05-01T22:15:17.618Z,3.80
2018-05-01T22:17:45.127Z,3.70
2018-05-01T22:20:12.644Z,3.70
2018-05-01T22:22:40.115Z,3.60
2018-05-01T22:25:07.612Z,3.60
2018-05-01T22:27:35.093Z,3.60
2018-05-01T22:30:02.587Z,3.60
2018-05-01T22:32:30.884Z,3.50
2018-05-01T22:34:59.111Z,3.40
2018-05-01T22:37:26.624Z,3.40
2018-05-01T22:39:54.891Z,3.40
2018-05-01T22:42:23.128Z,3.40
2018-05-01T22:44:50.624Z,3.30
2018-05-01T22:47:18.896Z,3.40
2018-05-01T22:49:47.152Z,3.50
2018-05-01T22:52:14.631Z,3.50
2018-05-01T22:54:42.913Z,3.50
2018-05-01T22:57:11.139Z,3.30
2018-05-01T22:59:39.424Z,3.20
2018-05-01T23:02:06.918Z,3.20
2018-05-01T23:04:35.163Z,3.20
2018-05-01T23:07:02.665Z,3.10
2018-05-01T23:09:30.934Z,3.10
2018-05-01T23:11:58.390Z,3.10
2018-05-01T23:14:25.914Z,3.00
2018-05-01T23:16:53.407Z,2.70
2018-05-01T23:19:21.646Z,2.50
2018-05-01T23:21:49.139Z,2.50
2018-05-01T23:24:17.420Z,2.50
2018-05-01T23:26:44.879Z,2.50
2018-05-01T23:29:12.370Z,2.60
2018-05-01T23:31:39.909Z,2.60
2018-05-01T23:34:07.408Z,2.60
2018-05-01T23:36:34.913Z,2.60
2018-05-01T23:39:02.407Z,2.60
2018-05-01T23:41:29.908Z,2.60
2018-05-01T23:43:58.188Z,2.50
2018-05-01T23:46:26.410Z,2.50
2018-05-01T23:48:53.891Z,2.50
2018-05-01T23:51:21.393Z,2.50
2018-05-01T23:53:48.904Z,2.40
2018-05-01T23:56:16.411Z,2.40
2018-05-01T23:58:43.911Z,2.40
